createdAt,value
2018-01-11T00:00:19.433Z,9.2
2018-01-11T00:02:19.163Z,9.7
2018-01-11T00:04:18.916Z,8.4
2018-01-11T00:06:18.980Z,7.7
2018-01-11T00:08:18.720Z,8.9
2018-01-11T00:10:19.012Z,7.8
2018-01-11T00:12:18.779Z,8.5
2018-01-11T00:14:18.533Z,8.7
2018-01-11T00:16:18.526Z,7.9
2018-01-11T00:18:19.360Z,8.3
2018-01-11T00:20:19.132Z,9
2018-01-11T00:22:18.855Z,7.4
2018-01-11T00:24:18.601Z,9.3
2018-01-11T00:26:19.112Z,8.6
2018-01-11T00:28:18.851Z,8.4
2018-01-11T00:30:18.603Z,10.7
2018-01-11T00:32:19.329Z,8.9
2018-01-11T00:34:19.085Z,7.1
2018-01-11T00:36:18.644Z,8.3
2018-01-11T00:38:19.387Z,7.6
2018-01-11T00:40:18.611Z,8.6
2018-01-11T00:42:19.350Z,9.2
2018-01-11T00:44:19.086Z,8
2018-01-11T00:46:18.723Z,7.7
2018-01-11T00:48:19.459Z,8.6
2018-01-11T00:50:19.193Z,8.5
2018-01-11T00:52:18.832Z,8.6
2018-01-11T00:54:18.581Z,6.8
2018-01-11T00:56:18.795Z,8.4
2018-01-11T00:58:18.527Z,8.4
2018-01-11T01:00:19.299Z,9
2018-01-11T01:02:19.062Z,8.2
2018-01-11T01:04:18.823Z,8.9
2018-01-11T01:06:18.853Z,8.2
2018-01-11T01:08:18.600Z,7.6
2018-01-11T01:10:18.838Z,8.3
2018-01-11T01:12:18.581Z,8.3
2018-01-11T01:14:19.361Z,9.5
2018-01-11T01:16:18.818Z,8
2018-01-11T01:18:18.618Z,8.1
2018-01-11T01:20:19.370Z,8.7
2018-01-11T01:22:18.874Z,7.1
2018-01-11T01:24:18.608Z,8.2
2018-01-11T01:26:18.655Z,7.7
2018-01-11T01:28:19.388Z,7.4
2018-01-11T01:30:19.148Z,7.5
2018-01-11T01:32:18.894Z,8.4
2018-01-11T01:34:18.657Z,8.7
2018-01-11T01:36:19.397Z,8.6
2018-01-11T01:38:19.150Z,8.4
2018-01-11T01:40:19.383Z,8.4
2018-01-11T01:42:19.128Z,9.1
2018-01-11T01:44:18.879Z,7.5
2018-01-11T01:46:18.757Z,8.8
2018-01-11T01:48:18.484Z,8.8
2018-01-11T01:50:19.281Z,8.7
2018-01-11T01:52:19.030Z,9.1
2018-01-11T01:54:18.768Z,9.6
2018-01-11T01:56:18.881Z,7.9
2018-01-11T01:58:18.620Z,9.3
2018-01-11T02:00:19.371Z,8.8
2018-01-11T02:02:19.088Z,9.8
2018-01-11T02:04:18.826Z,9.5
2018-01-11T02:06:19.189Z,9.1
2018-01-11T02:08:18.933Z,9.4
2018-01-11T02:10:19.217Z,9.2
2018-01-11T02:12:18.961Z,11
2018-01-11T02:14:18.710Z,9.8
2018-01-11T02:16:19.092Z,8
2018-01-11T02:18:18.931Z,8.2
2018-01-11T02:20:18.697Z,8.2
2018-01-11T02:22:19.444Z,7.9
2018-01-11T02:24:19.193Z,8.3
2018-01-11T02:26:19.322Z,8.5
2018-01-11T02:28:19.059Z,7.3
2018-01-11T02:30:18.824Z,7.9
2018-01-11T02:32:18.586Z,8.6
2018-01-11T02:34:19.322Z,8.3
2018-01-11T02:36:18.663Z,8.3
2018-01-11T02:38:19.432Z,7.6
2018-01-11T02:40:18.643Z,7.9
2018-01-11T02:42:19.400Z,7.6
2018-01-11T02:44:19.148Z,8.3
2018-01-11T02:46:19.175Z,7.4
2018-01-11T02:48:18.923Z,7.5
2018-01-11T02:50:18.732Z,8
2018-01-11T02:52:18.503Z,7.9
2018-01-11T02:54:19.298Z,8.7
2018-01-11T02:56:19.132Z,8
2018-01-11T02:58:18.943Z,8.2
2018-01-11T03:00:18.729Z,9.3
2018-01-11T03:02:18.479Z,8.2
2018-01-11T03:04:19.205Z,9.4
2018-01-11T03:06:18.707Z,8.9
2018-01-11T03:08:19.436Z,8.5
2018-01-11T03:10:18.762Z,9.2
2018-01-11T03:12:18.514Z,8.9
2018-01-11T03:14:19.242Z,8.4
2018-01-11T03:16:18.850Z,8.8
2018-01-11T03:18:18.741Z,10.6
2018-01-11T03:20:18.517Z,7.8
2018-01-11T03:22:18.621Z,9.1
2018-01-11T03:24:19.366Z,8.8
2018-01-11T03:26:18.855Z,9.3
2018-01-11T03:28:18.625Z,9
2018-01-11T03:30:19.467Z,8.5
2018-01-11T03:32:19.224Z,9.5
2018-01-11T03:34:18.981Z,8
2018-01-11T03:36:18.571Z,7.8
2018-01-11T03:38:19.331Z,9.5
2018-01-11T03:40:18.575Z,8.2
2018-01-11T03:42:19.310Z,7.8
2018-01-11T03:44:19.072Z,7.6
2018-01-11T03:46:18.571Z,8.2
2018-01-11T03:48:19.318Z,8.1
2018-01-11T03:50:19.070Z,9.4
2018-01-11T03:52:18.818Z,8.1
2018-01-11T03:54:18.586Z,9.5
2018-01-11T03:56:19.222Z,8.4
2018-01-11T03:58:19.000Z,9.1
2018-01-11T04:00:18.735Z,9.3
2018-01-11T04:02:18.460Z,7.8
2018-01-11T04:04:19.176Z,8.9
2018-01-11T04:06:18.586Z,9.4
2018-01-11T04:08:19.342Z,9
2018-01-11T04:10:18.571Z,9.1
2018-01-11T04:12:19.220Z,8.4
2018-01-11T04:14:18.980Z,9.5
2018-01-11T04:16:19.374Z,10.1
2018-01-11T04:18:19.192Z,8.5
2018-01-11T04:20:18.956Z,10.6
2018-01-11T04:22:18.713Z,8.2
2018-01-11T04:24:19.462Z,8.5
2018-01-11T04:26:18.495Z,9
2018-01-11T04:28:19.251Z,8
2018-01-11T04:30:19.005Z,8.9
2018-01-11T04:32:18.749Z,9.5
2018-01-11T04:34:18.495Z,8.2
2018-01-11T04:36:18.627Z,9.5
2018-01-11T04:38:19.388Z,9.7
2018-01-11T04:40:18.610Z,10.2
2018-01-11T04:42:19.344Z,9.6
2018-01-11T04:44:19.072Z,9.5
2018-01-11T04:46:19.151Z,9.3
2018-01-11T04:48:18.900Z,9.4
2018-01-11T04:50:18.652Z,9.9
2018-01-11T04:52:19.378Z,9.8
2018-01-11T04:54:19.136Z,7.8
2018-01-11T04:56:19.168Z,10.2
2018-01-11T04:58:18.922Z,10
2018-01-11T05:00:18.678Z,10.1
2018-01-11T05:02:19.443Z,10
2018-01-11T05:04:19.207Z,9.3
2018-01-11T05:06:19.387Z,8.7
2018-01-11T05:08:19.111Z,10.2
2018-01-11T05:10:19.354Z,9.4
2018-01-11T05:12:19.155Z,7.7
2018-01-11T05:14:18.921Z,10.5
2018-01-11T05:16:18.968Z,10.4
2018-01-11T05:18:18.800Z,9.4
2018-01-11T05:20:18.573Z,10.8
2018-01-11T05:22:19.337Z,10.2
2018-01-11T05:24:19.064Z,8.9
2018-01-11T05:26:19.437Z,11.2
2018-01-11T05:28:19.171Z,9.7
2018-01-11T05:30:18.944Z,10.4
2018-01-11T05:32:18.690Z,10.1
2018-01-11T05:34:19.418Z,8.4
2018-01-11T05:36:18.622Z,9
2018-01-11T05:38:19.394Z,9.2
2018-01-11T05:40:18.621Z,8.5
2018-01-11T05:42:19.376Z,9.8
2018-01-11T05:44:19.098Z,9.4
2018-01-11T05:46:18.571Z,9.2
2018-01-11T05:48:19.311Z,12.1
2018-01-11T05:50:19.126Z,10.9
2018-01-11T05:52:18.841Z,10.1
2018-01-11T05:54:18.576Z,9.5
2018-01-11T05:56:18.931Z,11.6
2018-01-11T05:58:18.682Z,11.2
2018-01-11T06:00:19.441Z,9.5
2018-01-11T06:02:19.160Z,9.7
2018-01-11T06:04:18.898Z,10.9
2018-01-11T06:06:19.436Z,11.1
2018-01-11T06:08:19.219Z,10.3
2018-01-11T06:10:19.425Z,10.1
2018-01-11T06:12:19.149Z,10.7
2018-01-11T06:14:18.893Z,10.4
2018-01-11T06:16:18.980Z,10.6
2018-01-11T06:18:18.775Z,11.9
2018-01-11T06:20:18.520Z,11
2018-01-11T06:22:19.256Z,11.4
2018-01-11T06:24:18.981Z,11.1
2018-01-11T06:26:19.215Z,11.3
2018-01-11T06:28:18.960Z,11.3
2018-01-11T06:30:18.683Z,13.3
2018-01-11T06:32:19.415Z,9.3
2018-01-11T06:34:19.179Z,10.5
2018-01-11T06:36:18.537Z,10
2018-01-11T06:38:19.242Z,10.9
2018-01-11T06:40:19.456Z,9.8
2018-01-11T06:42:19.101Z,10
2018-01-11T06:44:18.841Z,11.5
2018-01-11T06:46:18.679Z,11.4
2018-01-11T06:48:19.439Z,11.1
2018-01-11T06:50:19.182Z,10.1
2018-01-11T06:52:18.948Z,11.7
2018-01-11T06:54:18.700Z,11.1
2018-01-11T06:56:18.579Z,11.9
2018-01-11T06:58:19.303Z,11.8
2018-01-11T07:00:19.089Z,11.6
2018-01-11T07:02:18.608Z,12
2018-01-11T07:04:19.361Z,10.9
2018-01-11T07:06:19.021Z,11.5
2018-01-11T07:08:18.812Z,9.5
2018-01-11T07:10:19.120Z,12.8
2018-01-11T07:12:18.916Z,13.1
2018-01-11T07:14:18.652Z,11.2
2018-01-11T07:16:18.690Z,11.5
2018-01-11T07:18:18.523Z,12.9
2018-01-11T07:20:19.275Z,11.9
2018-01-11T07:22:19.011Z,11.2
2018-01-11T07:24:18.732Z,11.2
2018-01-11T07:26:19.253Z,11.4
2018-01-11T07:28:18.991Z,11.4
2018-01-11T07:30:18.737Z,12.4
2018-01-11T07:32:18.472Z,11.1
2018-01-11T07:34:19.214Z,12
2018-01-11T07:36:19.038Z,13.2
2018-01-11T07:38:18.786Z,11.8
2018-01-11T07:40:18.982Z,12.8
2018-01-11T07:42:18.706Z,11.8
2018-01-11T07:44:19.449Z,12.1
2018-01-11T07:46:19.132Z,12.1
2018-01-11T07:48:18.882Z,11.4
2018-01-11T07:50:18.661Z,11.8
2018-01-11T07:52:19.401Z,11.2
2018-01-11T07:54:19.157Z,11.6
2018-01-11T07:56:19.166Z,11.4
2018-01-11T07:58:18.947Z,13.1
2018-01-11T08:00:18.696Z,12.5
2018-01-11T08:02:19.447Z,12
2018-01-11T08:04:19.176Z,11.7
2018-01-11T08:06:18.704Z,10.7
2018-01-11T08:08:19.455Z,11
2018-01-11T08:10:18.678Z,12.2
2018-01-11T08:12:19.424Z,11.8
2018-01-11T08:14:19.156Z,11.5
2018-01-11T08:16:18.520Z,12.9
2018-01-11T08:18:19.341Z,12.5
2018-01-11T08:20:19.060Z,13.1
2018-01-11T08:22:18.794Z,10.4
2018-01-11T08:24:18.538Z,12.5
2018-01-11T08:26:19.105Z,11.4
2018-01-11T08:28:18.859Z,12
2018-01-11T08:30:18.614Z,11.2
2018-01-11T08:32:19.350Z,11.1
2018-01-11T08:34:19.086Z,11.2
2018-01-11T08:36:18.902Z,10.8
2018-01-11T08:38:18.634Z,12
2018-01-11T08:40:18.890Z,9.9
2018-01-11T08:42:19.335Z,12.8
2018-01-11T08:44:19.072Z,11.3
2018-01-11T08:46:18.599Z,11.9
2018-01-11T08:48:19.349Z,12.3
2018-01-11T08:50:19.090Z,12.1
2018-01-11T08:52:18.848Z,11.5
2018-01-11T08:54:18.600Z,11.6
2018-01-11T08:56:18.839Z,10.4
2018-01-11T08:58:18.571Z,11.8
2018-01-11T09:00:19.309Z,11.7
2018-01-11T09:02:19.021Z,11.4
2018-01-11T09:04:18.740Z,12.3
2018-01-11T09:06:19.098Z,12.8
2018-01-11T09:08:18.853Z,10.6
2018-01-11T09:10:19.090Z,12.5
2018-01-11T09:12:18.842Z,11.6
2018-01-11T09:14:18.572Z,11.3
2018-01-11T09:16:19.372Z,11.9
2018-01-11T09:18:19.174Z,12.3
2018-01-11T09:20:18.924Z,11.8
2018-01-11T09:22:18.653Z,12.7
2018-01-11T09:24:19.386Z,11.7
2018-01-11T09:26:18.846Z,13
2018-01-11T09:28:18.575Z,11.9
2018-01-11T09:30:19.325Z,11.8
2018-01-11T09:32:19.044Z,12.9
2018-01-11T09:34:18.760Z,13.3
2018-01-11T09:36:19.309Z,12.8
2018-01-11T09:38:19.024Z,14
2018-01-11T09:40:19.222Z,12.4
2018-01-11T09:42:18.922Z,12.7
2018-01-11T09:44:18.719Z,12.3
2018-01-11T09:46:19.200Z,12.4
2018-01-11T09:48:18.914Z,12.4
2018-01-11T09:50:18.640Z,12
2018-01-11T09:52:19.390Z,12.9
2018-01-11T09:54:19.113Z,13
2018-01-11T09:56:18.495Z,11.5
2018-01-11T09:58:19.223Z,10.9
2018-01-11T10:00:19.002Z,13
2018-01-11T10:02:18.591Z,13.1
2018-01-11T10:04:19.325Z,11.6
2018-01-11T10:06:19.386Z,13.5
2018-01-11T10:08:19.148Z,13.5
2018-01-11T10:10:19.409Z,11.5
2018-01-11T10:12:19.040Z,13.9
2018-01-11T10:14:18.776Z,12
2018-01-11T10:16:19.277Z,12.3
2018-01-11T10:18:19.085Z,11.2
2018-01-11T10:20:18.842Z,13.3
2018-01-11T10:22:18.572Z,12.7
2018-01-11T10:24:19.314Z,14.1
2018-01-11T10:26:19.423Z,12.4
2018-01-11T10:28:19.192Z,13.5
2018-01-11T10:30:19.001Z,13.4
2018-01-11T10:32:18.768Z,13.3
2018-01-11T10:34:18.539Z,12.7
2018-01-11T10:36:19.003Z,12.2
2018-01-11T10:38:18.752Z,13.7
2018-01-11T10:40:18.927Z,13
2018-01-11T10:42:18.661Z,12
2018-01-11T10:44:19.414Z,13.1
2018-01-11T10:46:18.484Z,11.7
2018-01-11T10:48:19.219Z,12
2018-01-11T10:50:18.975Z,12.1
2018-01-11T10:52:18.694Z,12.8
2018-01-11T10:54:19.459Z,12.5
2018-01-11T10:56:18.526Z,13.1
2018-01-11T10:58:19.285Z,12.3
2018-01-11T11:00:19.078Z,11.9
2018-01-11T11:02:18.816Z,10.9
2018-01-11T11:04:18.531Z,13.1
2018-01-11T11:06:19.229Z,13.5
2018-01-11T11:08:18.967Z,13.6
2018-01-11T11:10:19.203Z,13.8
2018-01-11T11:12:18.858Z,13.1
2018-01-11T11:14:18.582Z,12.8
2018-01-11T11:16:18.499Z,12.1
2018-01-11T11:18:19.310Z,11.4
2018-01-11T11:20:19.038Z,12.8
2018-01-11T11:22:18.768Z,14.2
2018-01-11T11:24:18.515Z,11.7
2018-01-11T11:26:19.394Z,12.9
2018-01-11T11:28:19.149Z,12.6
2018-01-11T11:30:18.964Z,14.2
2018-01-11T11:32:18.701Z,11.3
2018-01-11T11:34:19.470Z,11.8
2018-01-11T11:36:18.930Z,11.3
2018-01-11T11:38:18.660Z,12.6
2018-01-11T11:40:18.894Z,11
2018-01-11T11:42:18.636Z,10.8
2018-01-11T11:44:19.370Z,11.8
2018-01-11T11:46:18.675Z,12.3
2018-01-11T11:48:19.438Z,13
2018-01-11T11:50:19.219Z,12.3
2018-01-11T11:52:18.946Z,10
2018-01-11T11:54:18.666Z,10.7
2018-01-11T11:56:19.263Z,11.8
2018-01-11T11:58:19.027Z,10.4
2018-01-11T12:00:18.943Z,11.5
2018-01-11T12:02:18.684Z,11.2
2018-01-11T12:04:19.427Z,10.3
2018-01-11T12:06:18.590Z,9.3
2018-01-11T12:08:19.337Z,11.4
2018-01-11T12:10:18.587Z,11.5
2018-01-11T12:12:18.636Z,9.9
2018-01-11T12:14:19.398Z,10.5
2018-01-11T12:16:18.852Z,9.7
2018-01-11T12:18:18.676Z,11.9
2018-01-11T12:20:19.437Z,10.2
2018-01-11T12:22:19.207Z,8.9
2018-01-11T12:24:18.939Z,9.4
2018-01-11T12:26:18.939Z,9.3
2018-01-11T12:28:18.683Z,9.6
2018-01-11T12:30:19.464Z,10.3
2018-01-11T12:32:19.199Z,8.4
2018-01-11T12:34:18.936Z,9.5
2018-01-11T12:36:19.340Z,9.4
2018-01-11T12:38:19.119Z,8.8
2018-01-11T12:40:19.286Z,9.5
2018-01-11T12:42:19.072Z,10.5
2018-01-11T12:44:18.833Z,8.6
2018-01-11T12:46:19.349Z,8.5
2018-01-11T12:48:19.099Z,9.9
2018-01-11T12:50:18.844Z,9
2018-01-11T12:52:18.591Z,9.8
2018-01-11T12:54:19.357Z,8.8
2018-01-11T12:56:19.202Z,8.4
2018-01-11T12:58:18.964Z,8.4
2018-01-11T13:00:18.742Z,8.4
2018-01-11T13:02:19.472Z,8.7
2018-01-11T13:04:19.230Z,8.1
2018-01-11T13:06:18.736Z,7.7
2018-01-11T13:08:18.485Z,7.7
2018-01-11T13:10:18.756Z,7.8
2018-01-11T13:12:18.491Z,8.1
2018-01-11T13:14:19.222Z,9.9
2018-01-11T13:16:18.850Z,9.7
2018-01-11T13:18:18.652Z,10.1
2018-01-11T13:20:19.528Z,9.3
2018-01-11T13:22:19.260Z,8.2
2018-01-11T13:24:19.013Z,8.4
2018-01-11T13:26:18.699Z,7.8
2018-01-11T13:28:19.459Z,9.7
2018-01-11T13:30:19.217Z,9.1
2018-01-11T13:32:18.826Z,9.4
2018-01-11T13:34:18.585Z,9.4
2018-01-11T13:36:19.280Z,8.7
2018-01-11T13:38:19.000Z,8.5
2018-01-11T13:40:19.244Z,7.9
2018-01-11T13:42:18.992Z,9.5
2018-01-11T13:44:18.739Z,9
2018-01-11T13:46:18.797Z,8.6
2018-01-11T13:48:18.523Z,9.3
2018-01-11T13:50:19.314Z,8.7
2018-01-11T13:52:19.058Z,8.7
2018-01-11T13:54:18.828Z,8.9
2018-01-11T13:56:19.307Z,9.3
2018-01-11T13:58:19.060Z,9.8
2018-01-11T14:00:18.892Z,7.9
2018-01-11T14:02:18.625Z,9.7
2018-01-11T14:04:19.409Z,13.5
2018-01-11T14:06:18.484Z,9.7
2018-01-11T14:08:19.233Z,10.5
2018-01-11T14:10:19.436Z,9.9
2018-01-11T14:12:19.167Z,8.9
2018-01-11T14:14:18.938Z,8.4
2018-01-11T14:16:18.735Z,8.3
2018-01-11T14:18:18.567Z,11.8
2018-01-11T14:20:19.417Z,10.5
2018-01-11T14:22:19.185Z,10.7
2018-01-11T14:24:18.933Z,10.1
2018-01-11T14:26:19.311Z,10.6
2018-01-11T14:28:19.035Z,10
2018-01-11T14:30:18.791Z,9.7
2018-01-11T14:32:18.577Z,11.5
2018-01-11T14:34:19.332Z,10
2018-01-11T14:36:18.697Z,10.5
2018-01-11T14:38:19.447Z,9.3
2018-01-11T14:40:18.680Z,8.7
2018-01-11T14:42:19.451Z,9.2
2018-01-11T14:44:19.193Z,10
2018-01-11T14:46:19.376Z,9
2018-01-11T14:48:19.123Z,9.7
2018-01-11T14:50:18.882Z,10
2018-01-11T14:52:18.635Z,10.4
2018-01-11T14:54:19.382Z,9
2018-01-11T14:56:19.157Z,9
2018-01-11T14:58:18.934Z,10.2
2018-01-11T15:00:18.741Z,10.1
2018-01-11T15:02:18.475Z,10.4
2018-01-11T15:04:19.223Z,10.5
2018-01-11T15:06:18.831Z,10.1
2018-01-11T15:08:18.599Z,8.5
2018-01-11T15:10:18.784Z,9
2018-01-11T15:12:18.530Z,8.8
2018-01-11T15:14:19.277Z,8.2
2018-01-11T15:16:18.637Z,8.9
2018-01-11T15:18:19.477Z,9.9
2018-01-11T15:20:19.241Z,9
2018-01-11T15:22:18.975Z,6.8
2018-01-11T15:24:18.708Z,9.4
2018-01-11T15:26:18.728Z,9.8
2018-01-11T15:28:19.452Z,10.6
2018-01-11T15:30:19.203Z,10.8
2018-01-11T15:32:18.935Z,9.4
2018-01-11T15:34:18.676Z,9.9
2018-01-11T15:36:19.245Z,9.2
2018-01-11T15:38:18.994Z,8.8
2018-01-11T15:40:19.231Z,9.3
2018-01-11T15:42:18.975Z,9.1
2018-01-11T15:44:18.721Z,8.8
2018-01-11T15:46:19.226Z,9.6
2018-01-11T15:48:18.960Z,9.8
2018-01-11T15:50:18.737Z,9.7
2018-01-11T15:52:18.485Z,8.7
2018-01-11T15:54:19.220Z,10.9
2018-01-11T15:56:18.855Z,9.9
2018-01-11T15:58:18.629Z,8.6
2018-01-11T16:00:19.367Z,9.5
2018-01-11T16:02:19.098Z,8.8
2018-01-11T16:04:18.831Z,8.8
2018-01-11T16:06:19.168Z,9.5
2018-01-11T16:08:18.910Z,10.1
2018-01-11T16:10:19.236Z,9.4
2018-01-11T16:12:18.982Z,10.1
2018-01-11T16:14:18.737Z,10.5
2018-01-11T16:16:18.819Z,8.5
2018-01-11T16:18:18.661Z,10.5
2018-01-11T16:20:19.446Z,11
2018-01-11T16:22:19.199Z,14.5
2018-01-11T16:24:18.960Z,12.9
2018-01-11T16:26:19.310Z,10.5
2018-01-11T16:28:19.093Z,11.2
2018-01-11T16:30:18.864Z,10.8
2018-01-11T16:32:18.613Z,14.9
2018-01-11T16:34:19.426Z,12.3
2018-01-11T16:36:18.934Z,12.4
2018-01-11T16:38:18.676Z,11.6
2018-01-11T16:40:18.930Z,12.6
2018-01-11T16:42:18.703Z,11.4
2018-01-11T16:44:18.486Z,11.2
2018-01-11T16:46:18.585Z,12.9
2018-01-11T16:48:19.347Z,11.3
2018-01-11T16:50:19.097Z,11.7
2018-01-11T16:52:18.850Z,10.5
2018-01-11T16:54:18.597Z,10.3
2018-01-11T16:56:19.110Z,12.4
2018-01-11T16:58:18.843Z,11.7
2018-01-11T17:00:18.597Z,11.8
2018-01-11T17:02:19.355Z,12.1
2018-01-11T17:04:19.105Z,11.1
2018-01-11T17:06:18.832Z,9.7
2018-01-11T17:08:18.600Z,13.2
2018-01-11T17:10:18.848Z,13
2018-01-11T17:12:18.586Z,13
2018-01-11T17:14:19.330Z,12.3
2018-01-11T17:16:19.459Z,11.5
2018-01-11T17:18:19.361Z,12.3
2018-01-11T17:20:19.130Z,13.1
2018-01-11T17:22:18.934Z,12.6
2018-01-11T17:24:18.680Z,12.6
2018-01-11T17:26:19.213Z,12.2
2018-01-11T17:28:18.977Z,12.7
2018-01-11T17:30:18.745Z,11.8
2018-01-11T17:32:19.293Z,11.8
2018-01-11T17:34:19.025Z,14
2018-01-11T17:36:19.381Z,13.8
2018-01-11T17:38:19.171Z,12.1
2018-01-11T17:40:19.433Z,12.5
2018-01-11T17:42:19.175Z,12
2018-01-11T17:44:18.968Z,11.8
2018-01-11T17:46:19.513Z,10.8
2018-01-11T17:48:19.274Z,12.8
2018-01-11T17:50:19.040Z,12.6
2018-01-11T17:52:18.777Z,12.4
2018-01-11T17:54:18.514Z,11.9
2018-01-11T17:56:18.560Z,11.5
2018-01-11T17:58:19.342Z,12.4
2018-01-11T18:00:19.123Z,12
2018-01-11T18:02:18.870Z,13.2
2018-01-11T18:04:18.647Z,12.3
2018-01-11T18:06:19.238Z,12.9
2018-01-11T18:08:18.988Z,13.9
2018-01-11T18:10:19.198Z,12.7
2018-01-11T18:12:18.953Z,11.5
2018-01-11T18:14:18.715Z,13.1
2018-01-11T18:16:19.216Z,13.2
2018-01-11T18:18:19.056Z,12.7
2018-01-11T18:20:18.989Z,14.1
2018-01-11T18:22:18.728Z,13
2018-01-11T18:24:18.480Z,11.8
2018-01-11T18:26:18.506Z,11.9
2018-01-11T18:28:19.271Z,12
2018-01-11T18:30:19.017Z,11.9
2018-01-11T18:32:18.742Z,12.1
2018-01-11T18:34:18.486Z,13.7
2018-01-11T18:36:18.535Z,12.8
2018-01-11T18:38:19.272Z,12.2
2018-01-11T18:40:18.500Z,14
2018-01-11T18:42:19.258Z,12.5
2018-01-11T18:44:19.011Z,12.2
2018-01-11T18:46:18.515Z,12.6
2018-01-11T18:48:19.386Z,14.7
2018-01-11T18:50:19.262Z,14.1
2018-01-11T18:52:19.269Z,13.3
2018-01-11T18:54:19.002Z,13.8
2018-01-11T18:56:18.545Z,12.9
2018-01-11T18:58:19.280Z,13.3
2018-01-11T19:00:19.026Z,14.8
2018-01-11T19:02:18.758Z,13.3
2018-01-11T19:04:18.485Z,14
2018-01-11T19:06:18.841Z,14.1
2018-01-11T19:08:18.608Z,15.2
2018-01-11T19:10:18.871Z,14
2018-01-11T19:12:18.612Z,14.3
2018-01-11T19:14:19.377Z,15.4
2018-01-11T19:16:18.524Z,15.2
2018-01-11T19:18:19.360Z,13.8
2018-01-11T19:20:19.158Z,16.3
2018-01-11T19:22:19.229Z,15.5
2018-01-11T19:24:18.954Z,15.9
2018-01-11T19:26:19.161Z,14.3
2018-01-11T19:28:18.981Z,15.3
2018-01-11T19:30:18.704Z,17
2018-01-11T19:32:19.461Z,16.9
2018-01-11T19:34:19.202Z,15.6
2018-01-11T19:36:19.200Z,15.9
2018-01-11T19:38:18.941Z,13.7
2018-01-11T19:40:19.115Z,16.9
2018-01-11T19:42:18.847Z,16.3
2018-01-11T19:44:18.578Z,16.6
2018-01-11T19:46:19.077Z,15.7
2018-01-11T19:48:18.810Z,14.9
2018-01-11T19:50:18.572Z,17.8
2018-01-11T19:52:19.306Z,16.3
2018-01-11T19:54:19.055Z,15.6
2018-01-11T19:56:18.542Z,17.7
2018-01-11T19:58:19.321Z,16.2
2018-01-11T20:00:19.125Z,18.1
2018-01-11T20:02:18.890Z,17.1
2018-01-11T20:04:18.669Z,17.6
2018-01-11T20:06:18.724Z,18.1
2018-01-11T20:08:19.469Z,18
2018-01-11T20:10:18.730Z,17.8
2018-01-11T20:12:18.490Z,18.4
2018-01-11T20:14:19.218Z,17.6
2018-01-11T20:16:18.703Z,17.2
2018-01-11T20:18:18.528Z,18.4
2018-01-11T20:20:19.308Z,17
2018-01-11T20:22:19.055Z,18.2
2018-01-11T20:24:18.790Z,19.1
2018-01-11T20:26:18.596Z,16.6
2018-01-11T20:28:19.353Z,18
2018-01-11T20:30:19.179Z,16.7
2018-01-11T20:32:18.932Z,16.4
2018-01-11T20:34:18.693Z,17
2018-01-11T20:36:19.328Z,17.2
2018-01-11T20:38:19.089Z,17.3
2018-01-11T20:40:19.320Z,18.1
2018-01-11T20:42:19.078Z,18.6
2018-01-11T20:44:18.821Z,18.4
2018-01-11T20:46:19.371Z,17.6
2018-01-11T20:48:19.139Z,18.5
2018-01-11T20:50:19.177Z,18.5
2018-01-11T20:52:18.911Z,17.3
2018-01-11T20:54:18.633Z,18
2018-01-11T20:56:19.157Z,19.1
2018-01-11T20:58:18.892Z,17.6
2018-01-11T21:00:18.659Z,16.7
2018-01-11T21:02:19.422Z,19.3
2018-01-11T21:04:19.203Z,19.9
2018-01-11T21:06:19.236Z,18.6
2018-01-11T21:08:18.977Z,16.4
2018-01-11T21:10:19.203Z,16.1
2018-01-11T21:12:18.936Z,14.5
2018-01-11T21:14:18.679Z,15.9
2018-01-11T21:16:19.416Z,13.7
2018-01-11T21:18:19.213Z,15
2018-01-11T21:20:18.959Z,15.4
2018-01-11T21:22:18.708Z,13.7
2018-01-11T21:24:19.439Z,16.6
2018-01-11T21:26:18.991Z,16.7
2018-01-11T21:28:18.735Z,16.5
2018-01-11T21:30:18.519Z,15.6
2018-01-11T21:32:19.262Z,15.5
2018-01-11T21:34:19.017Z,15.3
2018-01-11T21:36:18.534Z,14.1
2018-01-11T21:38:19.304Z,15
2018-01-11T21:40:18.534Z,14.3
2018-01-11T21:42:19.265Z,15.3
2018-01-11T21:44:18.994Z,14.8
2018-01-11T21:46:18.645Z,13.6
2018-01-11T21:48:18.754Z,13.3
2018-01-11T21:50:18.494Z,14.9
2018-01-11T21:52:19.251Z,14.5
2018-01-11T21:54:18.985Z,15.1
2018-01-11T21:56:18.488Z,12.3
2018-01-11T21:58:19.255Z,15.4
2018-01-11T22:00:19.022Z,15.4
2018-01-11T22:02:18.777Z,14.5
2018-01-11T22:04:18.530Z,14.5
2018-01-11T22:06:19.173Z,14.3
2018-01-11T22:08:18.918Z,15.6
2018-01-11T22:10:19.093Z,15.2
2018-01-11T22:12:18.699Z,14.8
2018-01-11T22:14:19.454Z,14.6
2018-01-11T22:16:18.984Z,15.1
2018-01-11T22:18:18.785Z,14.3
2018-01-11T22:20:18.550Z,14.3
2018-01-11T22:22:19.325Z,13.5
2018-01-11T22:24:19.077Z,13.9
2018-01-11T22:26:18.551Z,16.6
2018-01-11T22:28:19.299Z,13.7
2018-01-11T22:30:19.072Z,15.4
2018-01-11T22:32:18.662Z,15.4
2018-01-11T22:34:19.410Z,14.4
2018-01-11T22:36:18.507Z,14.7
2018-01-11T22:38:19.231Z,15.1
2018-01-11T22:40:19.500Z,16.4
2018-01-11T22:42:19.230Z,16.7
2018-01-11T22:44:18.968Z,15.9
2018-01-11T22:46:19.343Z,16.9
2018-01-11T22:48:19.083Z,14.7
2018-01-11T22:50:18.843Z,16.1
2018-01-11T22:52:19.415Z,16
2018-01-11T22:54:19.131Z,17.8
2018-01-11T22:56:19.201Z,17.2
2018-01-11T22:58:18.961Z,17.3
2018-01-11T23:00:18.730Z,18.6
2018-01-11T23:02:19.455Z,18.2
2018-01-11T23:04:19.206Z,17.1
2018-01-11T23:06:18.823Z,17.6
2018-01-11T23:08:18.576Z,19.5
2018-01-11T23:10:18.800Z,20.3
2018-01-11T23:12:18.550Z,18.6
2018-01-11T23:14:19.309Z,22.2
2018-01-11T23:16:18.658Z,21.3
2018-01-11T23:18:18.467Z,20.2
2018-01-11T23:20:19.192Z,22.5
2018-01-11T23:22:18.920Z,21.4
2018-01-11T23:24:18.689Z,21.4
2018-01-11T23:26:18.984Z,22.4
2018-01-11T23:28:18.750Z,21.3
2018-01-11T23:30:18.529Z,21.5
2018-01-11T23:32:19.262Z,22.2
2018-01-11T23:34:19.023Z,22.2
2018-01-11T23:36:18.531Z,24
2018-01-11T23:38:19.281Z,22.8
2018-01-11T23:40:19.472Z,22.1
2018-01-11T23:42:19.241Z,21.6
2018-01-11T23:44:18.986Z,23
2018-01-11T23:46:19.119Z,22
2018-01-11T23:48:18.839Z,22.5
2018-01-11T23:50:18.587Z,21.8
2018-01-11T23:52:19.339Z,23.9
2018-01-11T23:54:19.119Z,23.4
2018-01-11T23:56:18.588Z,23.2
2018-01-11T23:58:19.324Z,25.7
